createdAt,value
2023-05-05T00:01:09.972Z,101202.29
2023-05-05T00:03:43.021Z,101201.06
2023-05-05T00:06:16.060Z,101200.69
2023-05-05T00:08:48.393Z,101187.25
2023-05-05T00:11:20.565Z,101200.52
2023-05-05T00:13:52.973Z,101202.33
2023-05-05T00:16:25.439Z,101207.24
2023-05-05T00:18:58.075Z,101210.91
2023-05-05T00:21:31.156Z,101206.19
2023-05-05T00:24:03.613Z,101198.55
2023-05-05T00:26:36.176Z,101195.01
2023-05-05T00:29:08.925Z,101201.61
2023-05-05T00:31:41.592Z,101200.83
2023-05-05T00:34:13.939Z,101199.65
2023-05-05T00:36:46.495Z,101206.74
2023-05-05T00:39:18.692Z,101182.59
2023-05-05T00:41:50.926Z,101209.98
2023-05-05T00:44:38.496Z,101209.79
2023-05-05T00:47:11.322Z,101211.13
2023-05-05T00:49:45.363Z,101210.15
2023-05-05T00:52:17.997Z,101204.88
2023-05-05T00:54:50.393Z,101206.65
2023-05-05T00:57:23.429Z,101206.79
2023-05-05T00:59:55.994Z,101213.09
2023-05-05T01:02:31.163Z,101210.46
2023-05-05T01:05:05.047Z,101208.31
2023-05-05T01:07:48.426Z,101202.89
2023-05-05T01:10:31.023Z,101200.58
2023-05-05T01:13:14.291Z,101200.66
2023-05-05T01:15:51.084Z,101203.98
2023-05-05T01:18:33.440Z,101204.29
2023-05-05T01:21:14.864Z,101203.18
2023-05-05T01:24:17.990Z,101199.77
2023-05-05T01:27:09.555Z,101199.94
2023-05-05T01:30:02.501Z,101193.11
2023-05-05T01:32:39.819Z,101195.89
2023-05-05T01:35:19.569Z,101200.39
2023-05-05T01:37:59.464Z,101198.32
2023-05-05T01:40:38.990Z,101194.52
2023-05-05T01:43:14.924Z,101195.16
2023-05-05T01:45:49.220Z,101196.77
2023-05-05T01:48:23.557Z,101196.92
2023-05-05T01:50:56.131Z,101193.55
2023-05-05T01:53:30.688Z,101194.90
2023-05-05T01:56:05.054Z,101192.21
2023-05-05T01:58:38.539Z,101195.30
2023-05-05T02:01:12.328Z,101203.93
2023-05-05T02:03:47.147Z,101199.60
2023-05-05T02:06:22.097Z,101204.70
2023-05-05T02:08:56.055Z,101201.27
2023-05-05T02:11:30.224Z,101201.58
2023-05-05T02:14:04.507Z,101201.68
2023-05-05T02:16:41.267Z,101201.04
2023-05-05T02:19:15.806Z,101199.21
2023-05-05T02:21:50.133Z,101204.96
2023-05-05T02:24:24.188Z,101199.18
2023-05-05T02:26:59.712Z,101200.30
2023-05-05T02:29:36.652Z,101202.08
2023-05-05T02:32:16.396Z,101197.80
2023-05-05T02:34:51.420Z,101198.55
2023-05-05T02:37:28.659Z,101198.75
2023-05-05T02:40:03.976Z,101201.59
2023-05-05T02:42:41.172Z,101202.86
2023-05-05T02:45:18.702Z,101201.65
2023-05-05T02:47:52.872Z,101202.35
2023-05-05T02:50:26.194Z,101198.94
2023-05-05T02:53:08.421Z,101203.04
2023-05-05T02:55:45.652Z,101198.54
2023-05-05T02:58:26.305Z,101198.17
2023-05-05T03:01:07.697Z,101199.83
2023-05-05T03:03:46.637Z,101203.64
2023-05-05T03:06:25.603Z,101207.30
2023-05-05T03:09:09.896Z,101212.94
2023-05-05T03:11:48.858Z,101218.30
2023-05-05T03:14:23.152Z,101220.35
2023-05-05T03:16:58.052Z,101220.54
2023-05-05T03:19:33.273Z,101221.87
2023-05-05T03:22:06.388Z,101223.10
2023-05-05T03:24:39.411Z,101222.36
2023-05-05T03:27:14.579Z,101221.59
2023-05-05T03:29:49.225Z,101223.39
2023-05-05T03:32:24.117Z,101219.19
2023-05-05T03:35:00.986Z,101221.63
2023-05-05T03:37:39.751Z,101218.86
2023-05-05T03:40:14.572Z,101219.08
2023-05-05T03:42:49.384Z,101219.05
2023-05-05T03:45:23.928Z,101221.05
2023-05-05T03:47:57.259Z,101219.48
2023-05-05T03:50:32.188Z,101219.00
2023-05-05T03:53:04.949Z,101220.65
2023-05-05T03:55:38.140Z,101222.58
2023-05-05T03:58:11.220Z,101220.88
2023-05-05T04:00:44.974Z,101221.83
2023-05-05T04:03:18.918Z,101222.90
2023-05-05T04:05:52.076Z,101223.38
2023-05-05T04:08:25.758Z,101217.67
2023-05-05T04:10:58.699Z,101216.85
2023-05-05T04:13:31.637Z,101220.08
2023-05-05T04:16:05.692Z,101221.41
2023-05-05T04:18:38.172Z,101222.25
2023-05-05T04:21:11.040Z,101224.36
2023-05-05T04:23:44.002Z,101227.36
2023-05-05T04:26:17.364Z,101230.83
2023-05-05T04:28:50.632Z,101230.45
2023-05-05T04:31:23.762Z,101237.65
2023-05-05T04:33:57.590Z,101233.55
2023-05-05T04:36:31.889Z,101235.18
2023-05-05T04:39:07.200Z,101239.83
2023-05-05T04:41:41.806Z,101239.74
2023-05-05T04:44:17.115Z,101240.48
2023-05-05T04:46:53.030Z,101242.42
2023-05-05T04:49:26.659Z,101247.54
2023-05-05T04:52:02.382Z,101251.73
2023-05-05T04:54:38.327Z,101256.45
2023-05-05T04:57:10.693Z,101258.16
2023-05-05T04:59:44.993Z,101252.95
2023-05-05T05:02:18.544Z,101256.48
2023-05-05T05:04:51.082Z,101263.16
2023-05-05T05:07:23.371Z,101264.31
2023-05-05T05:09:56.466Z,101262.39
2023-05-05T05:12:31.025Z,101262.10
2023-05-05T05:15:08.453Z,101268.13
2023-05-05T05:17:40.888Z,101269.34
2023-05-05T05:20:14.373Z,101272.23
2023-05-05T05:22:46.872Z,101275.46
2023-05-05T05:25:22.915Z,101276.23
2023-05-05T05:28:06.124Z,101275.52
2023-05-05T05:30:42.481Z,101278.81
2023-05-05T05:33:17.083Z,101282.52
2023-05-05T05:35:50.254Z,101286.79
2023-05-05T05:38:24.550Z,101283.52
2023-05-05T05:40:58.099Z,101286.81
2023-05-05T05:43:34.250Z,101291.02
2023-05-05T05:46:08.915Z,101292.07
2023-05-05T05:48:42.432Z,101299.52
2023-05-05T05:51:19.562Z,101295.75
2023-05-05T05:53:52.747Z,101300.08
2023-05-05T05:56:25.003Z,101296.85
2023-05-05T05:59:01.571Z,101297.98
2023-05-05T06:01:33.975Z,101292.89
2023-05-05T06:04:07.101Z,101289.84
2023-05-05T06:06:39.786Z,101289.72
2023-05-05T06:09:11.950Z,101290.89
2023-05-05T06:11:44.237Z,101293.82
2023-05-05T06:14:18.009Z,101302.33
2023-05-05T06:16:52.396Z,101302.45
2023-05-05T06:19:26.302Z,101309.73
2023-05-05T06:21:58.607Z,101311.80
2023-05-05T06:24:32.114Z,101309.96
2023-05-05T06:27:05.668Z,101314.95
2023-05-05T06:29:37.700Z,101309.80
2023-05-05T06:32:10.710Z,101307.26
2023-05-05T06:34:44.785Z,101307.05
2023-05-05T06:37:17.185Z,101306.59
2023-05-05T06:39:51.084Z,101306.00
2023-05-05T06:42:23.450Z,101307.30
2023-05-05T06:44:56.970Z,101308.44
2023-05-05T06:47:29.149Z,101307.20
2023-05-05T06:50:01.440Z,101310.65
2023-05-05T06:52:33.795Z,101312.30
2023-05-05T06:55:06.989Z,101311.77
2023-05-05T06:57:39.269Z,101305.39
2023-05-05T07:00:14.972Z,101309.01
2023-05-05T07:02:47.774Z,101308.60
2023-05-05T07:05:20.401Z,101303.83
2023-05-05T07:07:56.576Z,101305.16
2023-05-05T07:10:28.986Z,101306.48
2023-05-05T07:13:01.427Z,101305.48
2023-05-05T07:15:33.512Z,101304.27
2023-05-05T07:18:06.064Z,101310.81
2023-05-05T07:20:38.440Z,101306.17
2023-05-05T07:23:11.336Z,101302.46
2023-05-05T07:25:43.970Z,101301.19
2023-05-05T07:28:16.559Z,101296.55
2023-05-05T07:30:49.130Z,101297.42
2023-05-05T07:33:21.554Z,101296.29
2023-05-05T07:35:54.018Z,101300.80
2023-05-05T07:38:26.721Z,101304.02
2023-05-05T07:40:58.959Z,101305.55
2023-05-05T07:43:31.152Z,101310.02
2023-05-05T07:46:03.591Z,101305.71
2023-05-05T07:48:35.899Z,101310.41
2023-05-05T07:51:08.240Z,101308.17
2023-05-05T07:53:41.990Z,101305.98
2023-05-05T07:56:14.301Z,101305.73
2023-05-05T07:58:46.823Z,101309.45
2023-05-05T08:01:19.420Z,101307.80
2023-05-05T08:03:51.960Z,101312.43
2023-05-05T08:06:25.342Z,101308.70
2023-05-05T08:08:58.178Z,101312.42
2023-05-05T08:11:30.696Z,101314.36
2023-05-05T08:14:02.954Z,101316.77
2023-05-05T08:16:35.510Z,101316.33
2023-05-05T08:19:14.819Z,101318.47
2023-05-05T08:21:53.989Z,101321.18
2023-05-05T08:24:26.211Z,101324.77
2023-05-05T08:26:58.987Z,101321.44
2023-05-05T08:29:31.139Z,101323.20
2023-05-05T08:32:03.613Z,101326.77
2023-05-05T08:34:36.299Z,101326.61
2023-05-05T08:37:08.796Z,101327.13
2023-05-05T08:39:41.358Z,101332.48
2023-05-05T08:42:19.793Z,101334.40
2023-05-05T08:45:01.280Z,101327.98
2023-05-05T08:47:33.967Z,101323.34
2023-05-05T08:50:07.366Z,101323.09
2023-05-05T08:52:44.537Z,101322.05
2023-05-05T08:55:26.848Z,101318.14
2023-05-05T08:58:01.265Z,101323.48
2023-05-05T09:00:34.766Z,101326.23
2023-05-05T09:03:08.836Z,101326.95
2023-05-05T09:05:43.349Z,101328.02
2023-05-05T09:08:17.380Z,101319.14
2023-05-05T09:10:52.390Z,101333.37
2023-05-05T09:13:24.584Z,101332.71
2023-05-05T09:15:56.879Z,101331.65
2023-05-05T09:18:29.214Z,101327.91
2023-05-05T09:21:02.274Z,101324.37
2023-05-05T09:23:34.386Z,101323.55
2023-05-05T09:26:08.977Z,101325.67
2023-05-05T09:28:52.473Z,101328.19
2023-05-05T09:31:25.053Z,101329.55
2023-05-05T09:34:00.952Z,101328.41
2023-05-05T09:36:49.087Z,101329.38
2023-05-05T09:39:22.417Z,101334.61
2023-05-05T09:41:54.957Z,101330.65
2023-05-05T09:44:37.936Z,101336.95
2023-05-05T09:47:22.370Z,101338.98
2023-05-05T09:50:01.945Z,101325.09
2023-05-05T09:52:34.733Z,101341.14
2023-05-05T09:55:09.392Z,101335.76
2023-05-05T09:57:41.756Z,101330.84
2023-05-05T10:00:16.843Z,101335.75
2023-05-05T10:02:49.158Z,101330.27
2023-05-05T10:05:21.733Z,101341.80
2023-05-05T10:07:54.215Z,101339.95
2023-05-05T10:10:28.631Z,101343.23
2023-05-05T10:12:59.981Z,101341.08
2023-05-05T10:15:32.319Z,101340.65
2023-05-05T10:18:08.130Z,101332.27
2023-05-05T10:20:43.270Z,101340.48
2023-05-05T10:23:16.081Z,101324.04
2023-05-05T10:25:52.129Z,101337.00
2023-05-05T10:28:33.696Z,101332.96
2023-05-05T10:31:24.526Z,101321.84
2023-05-05T10:34:04.491Z,101321.08
2023-05-05T10:36:38.921Z,101324.45
2023-05-05T10:39:12.536Z,101317.33
2023-05-05T10:41:46.368Z,101311.41
2023-05-05T10:44:19.316Z,101312.83
2023-05-05T10:46:52.527Z,101320.68
2023-05-05T10:49:34.496Z,101307.69
2023-05-05T10:52:15.311Z,101303.69
2023-05-05T10:54:51.256Z,101300.70
2023-05-05T10:57:27.587Z,101297.05
2023-05-05T10:59:59.875Z,101294.40
2023-05-05T11:02:32.857Z,101289.40
2023-05-05T11:05:18.122Z,101283.55
2023-05-05T11:07:51.836Z,101279.00
2023-05-05T11:10:24.192Z,101277.04
2023-05-05T11:13:21.228Z,101269.05
2023-05-05T11:15:55.505Z,101265.37
2023-05-05T11:18:44.579Z,101263.70
2023-05-05T11:21:18.819Z,101262.33
2023-05-05T11:23:52.949Z,101265.13
2023-05-05T11:26:52.329Z,101270.34
2023-05-05T11:29:24.941Z,101275.02
2023-05-05T11:32:16.911Z,101265.88
2023-05-05T11:34:53.477Z,101268.46
2023-05-05T11:37:28.198Z,101268.14
2023-05-05T11:40:12.420Z,101263.98
2023-05-05T11:42:44.817Z,101262.84
2023-05-05T11:45:27.540Z,101258.96
2023-05-05T11:48:27.303Z,101261.20
2023-05-05T11:51:02.346Z,101255.23
2023-05-05T11:53:35.157Z,101255.55
2023-05-05T11:56:12.064Z,101260.20
2023-05-05T11:58:44.606Z,101256.39
2023-05-05T12:01:17.187Z,101259.47
2023-05-05T12:03:49.678Z,101250.58
2023-05-05T12:06:22.305Z,101260.27
2023-05-05T12:08:55.000Z,101262.11
2023-05-05T12:11:27.422Z,101260.20
2023-05-05T12:14:12.874Z,101260.65
2023-05-05T12:16:57.063Z,101262.38
2023-05-05T12:19:33.139Z,101263.05
2023-05-05T12:22:05.943Z,101261.36
2023-05-05T12:24:38.322Z,101263.52
2023-05-05T12:27:14.594Z,101253.58
2023-05-05T12:29:47.098Z,101254.20
2023-05-05T12:32:25.090Z,101248.66
2023-05-05T12:34:58.801Z,101252.52
2023-05-05T12:37:31.462Z,101249.56
2023-05-05T12:40:06.310Z,101255.27
2023-05-05T12:42:48.402Z,101248.84
2023-05-05T12:45:20.569Z,101246.73
2023-05-05T12:47:53.358Z,101249.63
2023-05-05T12:50:33.722Z,101247.59
2023-05-05T12:53:06.025Z,101244.79
2023-05-05T12:55:41.372Z,101242.64
2023-05-05T12:58:13.916Z,101232.19
2023-05-05T13:00:46.565Z,101239.83
2023-05-05T13:03:24.939Z,101235.92
2023-05-05T13:05:57.456Z,101232.02
2023-05-05T13:08:46.233Z,101231.79
2023-05-05T13:11:18.595Z,101232.60
2023-05-05T13:13:50.985Z,101232.29
2023-05-05T13:16:23.770Z,101230.84
2023-05-05T13:18:57.858Z,101230.59
2023-05-05T13:21:30.327Z,101229.30
2023-05-05T13:24:19.830Z,101228.14
2023-05-05T13:26:55.919Z,101223.40
2023-05-05T13:29:31.277Z,101225.90
2023-05-05T13:32:04.198Z,101219.52
2023-05-05T13:34:36.406Z,101208.15
2023-05-05T13:37:08.782Z,101213.18
2023-05-05T13:39:41.264Z,101209.52
2023-05-05T13:42:13.529Z,101202.27
2023-05-05T13:44:46.047Z,101204.31
2023-05-05T13:47:18.732Z,101207.85
2023-05-05T13:49:51.445Z,101198.29
2023-05-05T13:52:23.748Z,101194.29
2023-05-05T13:54:56.103Z,101186.35
2023-05-05T13:57:28.601Z,101193.28
2023-05-05T14:00:01.128Z,101190.55
2023-05-05T14:02:33.499Z,101191.63
2023-05-05T14:05:06.536Z,101187.73
2023-05-05T14:07:38.803Z,101183.05
2023-05-05T14:10:12.091Z,101180.83
2023-05-05T14:12:44.486Z,101180.94
2023-05-05T14:15:17.094Z,101189.79
2023-05-05T14:17:49.641Z,101187.25
2023-05-05T14:20:22.102Z,101184.50
2023-05-05T14:22:54.945Z,101178.50
2023-05-05T14:25:27.294Z,101175.87
2023-05-05T14:27:59.478Z,101172.14
2023-05-05T14:30:31.580Z,101175.67
2023-05-05T14:33:04.118Z,101170.37
2023-05-05T14:35:36.260Z,101172.55
2023-05-05T14:38:08.569Z,101172.95
2023-05-05T14:40:41.052Z,101165.70
2023-05-05T14:43:13.424Z,101162.67
2023-05-05T14:45:45.907Z,101165.30
2023-05-05T14:48:21.881Z,101170.41
2023-05-05T14:50:54.629Z,101162.58
2023-05-05T14:53:27.185Z,101167.44
2023-05-05T14:55:59.381Z,101170.39
2023-05-05T14:58:31.754Z,101169.11
2023-05-05T15:01:04.998Z,101168.27
2023-05-05T15:03:37.680Z,101165.84
2023-05-05T15:06:10.345Z,101164.19
2023-05-05T15:08:42.720Z,101174.20
2023-05-05T15:11:14.958Z,101166.58
2023-05-05T15:13:47.246Z,101172.81
2023-05-05T15:16:19.829Z,101164.50
2023-05-05T15:18:52.394Z,101157.63
2023-05-05T15:21:24.891Z,101162.34
2023-05-05T15:23:57.349Z,101163.91
2023-05-05T15:26:29.727Z,101168.21
2023-05-05T15:29:02.196Z,101164.20
2023-05-05T15:31:34.843Z,101170.48
2023-05-05T15:34:07.013Z,101173.48
2023-05-05T15:36:39.543Z,101179.55
2023-05-05T15:39:12.015Z,101178.41
2023-05-05T15:41:44.244Z,101164.04
2023-05-05T15:44:16.630Z,101172.22
2023-05-05T15:46:50.505Z,101171.14
2023-05-05T15:49:23.224Z,101167.39
2023-05-05T15:51:56.056Z,101170.08
2023-05-05T15:54:28.491Z,101165.08
2023-05-05T15:57:00.853Z,101164.17
2023-05-05T15:59:33.897Z,101169.46
2023-05-05T16:02:06.975Z,101170.04
2023-05-05T16:04:39.258Z,101172.77
2023-05-05T16:07:11.681Z,101169.23
2023-05-05T16:09:44.481Z,101171.38
2023-05-05T16:12:16.858Z,101165.51
2023-05-05T16:14:49.404Z,101165.21
2023-05-05T16:17:22.343Z,101159.86
2023-05-05T16:19:55.194Z,101157.30
2023-05-05T16:22:27.592Z,101152.60
2023-05-05T16:24:59.812Z,101149.33
2023-05-05T16:27:32.212Z,101147.14
2023-05-05T16:30:04.639Z,101144.54
2023-05-05T16:32:37.185Z,101145.34
2023-05-05T16:35:11.904Z,101139.34
2023-05-05T16:37:42.620Z,101141.95
2023-05-05T16:40:15.936Z,101139.19
2023-05-05T16:42:48.618Z,101142.73
2023-05-05T16:45:20.824Z,101144.75
2023-05-05T16:47:55.415Z,101140.71
2023-05-05T16:50:27.917Z,101143.20
2023-05-05T16:53:00.657Z,101142.52
2023-05-05T16:55:33.041Z,101145.45
2023-05-05T16:58:05.538Z,101141.16
2023-05-05T17:00:37.907Z,101141.96
2023-05-05T17:03:10.323Z,101143.79
2023-05-05T17:05:42.786Z,101148.77
2023-05-05T17:08:15.322Z,101149.91
2023-05-05T17:10:48.054Z,101141.09
2023-05-05T17:13:20.926Z,101148.75
2023-05-05T17:15:53.276Z,101150.45
2023-05-05T17:18:26.025Z,101151.97
2023-05-05T17:20:58.339Z,101154.16
2023-05-05T17:23:30.780Z,101159.21
2023-05-05T17:26:03.201Z,101157.61
2023-05-05T17:28:35.766Z,101163.63
2023-05-05T17:31:08.321Z,101150.83
2023-05-05T17:33:40.648Z,101161.10
2023-05-05T17:36:13.524Z,101164.35
2023-05-05T17:38:45.895Z,101165.96
2023-05-05T17:41:18.229Z,101170.11
2023-05-05T17:43:50.426Z,101174.06
2023-05-05T17:46:22.853Z,101174.80
2023-05-05T17:48:55.649Z,101170.77
2023-05-05T17:51:28.668Z,101171.62
2023-05-05T17:54:01.399Z,101174.59
2023-05-05T17:56:34.904Z,101173.25
2023-05-05T17:59:07.281Z,101177.16
2023-05-05T18:01:39.576Z,101174.83
2023-05-05T18:04:11.743Z,101173.95
2023-05-05T18:06:44.329Z,101174.59
2023-05-05T18:09:17.742Z,101176.82
2023-05-05T18:11:52.424Z,101175.24
2023-05-05T18:14:24.808Z,101172.73
2023-05-05T18:16:56.908Z,101173.41
2023-05-05T18:19:29.204Z,101175.91
2023-05-05T18:22:01.694Z,101172.79
2023-05-05T18:24:34.115Z,101173.60
2023-05-05T18:27:08.465Z,101171.27
2023-05-05T18:29:40.789Z,101172.98
2023-05-05T18:32:13.310Z,101175.36
2023-05-05T18:34:45.621Z,101182.27
2023-05-05T18:37:17.879Z,101183.20
2023-05-05T18:39:50.360Z,101186.30
2023-05-05T18:42:22.574Z,101194.90
2023-05-05T18:44:55.012Z,101193.49
2023-05-05T18:47:28.684Z,101190.06
2023-05-05T18:50:01.645Z,101186.34
2023-05-05T18:52:34.359Z,101186.08
2023-05-05T18:55:07.614Z,101188.98
2023-05-05T18:57:40.760Z,101185.05
2023-05-05T19:00:14.975Z,101188.57
2023-05-05T19:02:47.353Z,101192.54
2023-05-05T19:05:19.672Z,101193.17
2023-05-05T19:07:52.083Z,101188.38
2023-05-05T19:10:24.610Z,101177.40
2023-05-05T19:12:57.180Z,101178.48
2023-05-05T19:15:29.663Z,101177.20
2023-05-05T19:18:02.322Z,101166.38
2023-05-05T19:20:34.585Z,101172.15
2023-05-05T19:23:07.340Z,101177.66
2023-05-05T19:25:40.679Z,101182.83
2023-05-05T19:28:13.156Z,101174.21
2023-05-05T19:30:46.634Z,101172.77
2023-05-05T19:33:19.321Z,101172.62
2023-05-05T19:35:51.768Z,101171.25
2023-05-05T19:38:24.113Z,101173.35
2023-05-05T19:40:56.550Z,101169.29
2023-05-05T19:43:28.914Z,101168.44
2023-05-05T19:46:01.748Z,101173.13
2023-05-05T19:48:34.064Z,101177.52
2023-05-05T19:51:06.593Z,101175.72
2023-05-05T19:53:40.215Z,101179.31
2023-05-05T19:56:13.168Z,101180.40
2023-05-05T19:58:57.723Z,101177.78
2023-05-05T20:01:30.586Z,101177.05
2023-05-05T20:04:03.477Z,101176.55
2023-05-05T20:06:36.398Z,101177.37
2023-05-05T20:09:08.896Z,101173.27
2023-05-05T20:11:41.056Z,101175.46
2023-05-05T20:14:13.344Z,101174.71
2023-05-05T20:16:45.853Z,101175.56
2023-05-05T20:19:18.277Z,101180.90
2023-05-05T20:21:50.496Z,101180.89
2023-05-05T20:24:23.494Z,101167.80
2023-05-05T20:26:55.866Z,101179.59
2023-05-05T20:29:28.115Z,101175.77
2023-05-05T20:32:00.397Z,101178.21
2023-05-05T20:34:32.673Z,101175.02
2023-05-05T20:37:05.120Z,101169.68
2023-05-05T20:39:37.885Z,101171.41
2023-05-05T20:42:10.293Z,101170.84
2023-05-05T20:44:43.002Z,101167.73
2023-05-05T20:47:15.555Z,101168.05
2023-05-05T20:49:48.167Z,101158.56
2023-05-05T20:52:20.688Z,101167.94
2023-05-05T20:54:52.912Z,101163.86
2023-05-05T20:57:26.074Z,101168.89
2023-05-05T20:59:58.847Z,101177.82
2023-05-05T21:02:31.820Z,101174.73
2023-05-05T21:05:04.380Z,101170.15
2023-05-05T21:07:37.272Z,101165.84
2023-05-05T21:10:12.169Z,101165.41
2023-05-05T21:12:44.833Z,101164.48
2023-05-05T21:15:17.724Z,101159.73
2023-05-05T21:17:50.195Z,101156.83
2023-05-05T21:20:22.789Z,101156.20
2023-05-05T21:22:55.353Z,101149.58
2023-05-05T21:25:28.798Z,101145.92
2023-05-05T21:28:01.422Z,101144.14
2023-05-05T21:30:33.731Z,101135.46
2023-05-05T21:33:05.964Z,101142.46
2023-05-05T21:35:38.248Z,101136.09
2023-05-05T21:38:10.641Z,101131.83
2023-05-05T21:40:43.065Z,101132.23
2023-05-05T21:43:15.596Z,101131.22
2023-05-05T21:45:47.886Z,101129.30
2023-05-05T21:48:20.110Z,101114.43
2023-05-05T21:50:52.339Z,101127.12
2023-05-05T21:53:24.956Z,101128.02
2023-05-05T21:55:57.763Z,101130.27
2023-05-05T21:58:30.213Z,101126.55
2023-05-05T22:01:02.594Z,101124.77
2023-05-05T22:03:36.279Z,101123.59
2023-05-05T22:06:08.882Z,101131.08
2023-05-05T22:08:41.426Z,101132.34
2023-05-05T22:11:13.853Z,101128.05
2023-05-05T22:13:46.941Z,101102.70
2023-05-05T22:16:19.643Z,101116.88
2023-05-05T22:18:52.581Z,101117.23
2023-05-05T22:21:25.006Z,101119.24
2023-05-05T22:23:59.011Z,101108.27
2023-05-05T22:26:31.765Z,101110.34
2023-05-05T22:29:04.358Z,101108.64
2023-05-05T22:31:36.870Z,101104.86
2023-05-05T22:34:09.169Z,101102.80
2023-05-05T22:36:42.329Z,101102.20
2023-05-05T22:39:15.129Z,101102.90
2023-05-05T22:41:47.618Z,101105.34
2023-05-05T22:44:19.912Z,101102.38
2023-05-05T22:46:52.575Z,101099.70
2023-05-05T22:49:24.957Z,101091.46
2023-05-05T22:51:58.543Z,101094.98
2023-05-05T22:54:31.025Z,101092.88
2023-05-05T22:57:03.854Z,101094.02
2023-05-05T22:59:36.663Z,101092.64
2023-05-05T23:02:09.238Z,101101.36
2023-05-05T23:04:41.654Z,101094.63
2023-05-05T23:07:14.286Z,101092.18
2023-05-05T23:09:47.348Z,101089.44
2023-05-05T23:12:19.616Z,101092.84
2023-05-05T23:14:52.510Z,101089.27
2023-05-05T23:17:24.784Z,101086.09
2023-05-05T23:19:57.156Z,101086.85
2023-05-05T23:22:30.109Z,101082.90
2023-05-05T23:25:02.554Z,101084.77
2023-05-05T23:27:35.118Z,101083.19
2023-05-05T23:30:09.990Z,101084.11
2023-05-05T23:32:40.923Z,101085.98
2023-05-05T23:35:13.937Z,101085.64
2023-05-05T23:37:46.343Z,101084.81
2023-05-05T23:40:19.089Z,101081.71
2023-05-05T23:42:51.406Z,101073.03
2023-05-05T23:45:23.657Z,101073.40
2023-05-05T23:47:56.494Z,101068.46
2023-05-05T23:50:30.247Z,101061.11
2023-05-05T23:53:02.701Z,101058.95
2023-05-05T23:55:35.314Z,101057.34
2023-05-05T23:58:07.792Z,101050.23
